createdAt,value
2018-05-09T00:00:11.889Z,19.39
2018-05-09T00:02:39.353Z,19.11
2018-05-09T00:05:06.861Z,19.36
2018-05-09T00:07:34.372Z,19.31
2018-05-09T00:10:01.907Z,19.14
2018-05-09T00:12:29.438Z,19.19
2018-05-09T00:14:57.551Z,19.14
2018-05-09T00:17:25.075Z,19.15
2018-05-09T00:19:52.565Z,19.11
2018-05-09T00:22:20.068Z,19.16
2018-05-09T00:24:47.644Z,19.11
2018-05-09T00:27:15.137Z,19.15
2018-05-09T00:29:42.663Z,19.05
2018-05-09T00:32:10.144Z,19.00
2018-05-09T00:34:37.644Z,19.15
2018-05-09T00:37:05.115Z,18.75
2018-05-09T00:39:32.649Z,18.65
2018-05-09T00:42:00.166Z,18.85
2018-05-09T00:44:27.642Z,18.72
2018-05-09T00:53:15.518Z,18.34
2018-05-09T00:55:43.037Z,18.49
2018-05-09T00:58:10.536Z,18.42
2018-05-09T01:00:38.010Z,18.34
2018-05-09T01:03:05.514Z,18.23
2018-05-09T01:05:33.008Z,18.61
2018-05-09T01:08:00.474Z,18.43
2018-05-09T01:10:27.990Z,18.46
2018-05-09T01:12:55.462Z,18.37
2018-05-09T01:15:22.964Z,18.34
2018-05-09T01:17:50.447Z,18.21
2018-05-09T01:20:17.978Z,18.16
2018-05-09T01:22:45.457Z,18.02
2018-05-09T01:25:12.972Z,18.02
2018-05-09T01:27:40.500Z,18.15
2018-05-09T01:30:07.968Z,18.11
2018-05-09T01:32:35.620Z,17.99
2018-05-09T01:35:03.104Z,18.05
2018-05-09T01:37:30.625Z,18.00
2018-05-09T01:39:58.120Z,17.91
2018-05-09T01:42:26.377Z,17.86
2018-05-09T01:48:36.314Z,18.02
2018-05-09T01:51:03.804Z,17.92
2018-05-09T01:53:31.294Z,17.64
2018-05-09T01:55:58.828Z,17.77
2018-05-09T01:58:26.372Z,17.59
2018-05-09T02:00:53.897Z,17.59
2018-05-09T02:03:21.410Z,17.63
2018-05-09T02:05:48.915Z,17.80
2018-05-09T02:08:16.441Z,17.63
2018-05-09T02:10:43.931Z,17.49
2018-05-09T02:23:13.605Z,16.93
2018-05-09T02:25:41.095Z,17.11
2018-05-09T02:28:08.592Z,16.83
2018-05-09T02:30:36.110Z,16.79
2018-05-09T02:33:03.588Z,16.59
2018-05-09T02:35:31.204Z,17.05
2018-05-09T02:37:58.620Z,16.96
2018-05-09T02:40:26.119Z,16.90
2018-05-09T02:42:53.670Z,17.02
2018-05-09T02:45:21.152Z,16.80
2018-05-09T02:47:48.647Z,16.79
2018-05-09T02:50:16.157Z,16.90
2018-05-09T02:52:43.788Z,16.82
2018-05-09T02:55:11.262Z,16.80
2018-05-09T02:57:38.749Z,16.85
2018-05-09T03:00:06.236Z,16.89
2018-05-09T03:02:33.729Z,16.75
2018-05-09T03:05:01.257Z,16.56
2018-05-09T03:07:28.740Z,16.67
2018-05-09T03:09:56.274Z,16.81
2018-05-09T03:12:23.796Z,16.80
2018-05-09T03:14:51.277Z,16.73
2018-05-09T03:17:18.773Z,16.66
2018-05-09T03:19:46.282Z,16.61
2018-05-09T03:22:13.796Z,16.45
2018-05-09T03:24:41.321Z,16.31
2018-05-09T03:27:08.803Z,16.35
2018-05-09T03:29:36.336Z,16.44
2018-05-09T03:32:03.813Z,16.59
2018-05-09T03:34:31.327Z,16.69
2018-05-09T03:36:58.805Z,16.58
2018-05-09T03:39:26.292Z,16.45
2018-05-09T03:41:53.788Z,16.44
2018-05-09T03:44:21.314Z,16.54
2018-05-09T03:46:48.837Z,16.54
2018-05-09T03:49:16.315Z,16.46
2018-05-09T03:51:43.857Z,16.43
2018-05-09T03:54:11.367Z,16.44
2018-05-09T03:56:38.817Z,16.45
2018-05-09T03:59:06.330Z,16.14
2018-05-09T04:01:45.748Z,16.39
2018-05-09T04:04:24.999Z,16.30
2018-05-09T04:07:04.176Z,16.32
2018-05-09T04:09:43.733Z,16.33
2018-05-09T04:12:11.263Z,16.37
2018-05-09T04:14:38.761Z,16.34
2018-05-09T04:17:06.278Z,16.34
2018-05-09T04:19:33.803Z,16.48
2018-05-09T04:22:01.290Z,16.41
2018-05-09T04:24:28.804Z,16.56
2018-05-09T04:26:56.308Z,16.48
2018-05-09T04:29:23.982Z,16.50
2018-05-09T04:31:51.460Z,16.39
2018-05-09T04:34:18.983Z,16.56
2018-05-09T04:36:46.482Z,16.52
2018-05-09T04:39:13.992Z,16.56
2018-05-09T04:41:41.517Z,16.46
2018-05-09T04:44:08.989Z,16.34
2018-05-09T04:46:36.517Z,16.59
2018-05-09T04:49:04.002Z,16.50
2018-05-09T04:51:31.518Z,16.35
2018-05-09T04:53:59.042Z,16.54
2018-05-09T04:56:26.564Z,16.63
2018-05-09T04:58:54.112Z,16.59
2018-05-09T05:01:21.640Z,16.67
2018-05-09T05:03:49.140Z,16.69
2018-05-09T05:06:16.637Z,16.78
2018-05-09T05:08:44.165Z,16.72
2018-05-09T05:11:11.679Z,16.84
2018-05-09T05:13:39.173Z,17.02
2018-05-09T05:16:06.722Z,16.91
2018-05-09T05:18:34.210Z,16.94
2018-05-09T05:21:01.701Z,16.89
2018-05-09T05:23:29.205Z,16.80
2018-05-09T05:25:56.727Z,16.89
2018-05-09T05:28:24.208Z,17.00
2018-05-09T05:30:51.774Z,16.89
2018-05-09T05:33:19.539Z,16.91
2018-05-09T05:35:47.121Z,17.02
2018-05-09T05:38:14.605Z,17.06
2018-05-09T05:40:42.529Z,17.05
2018-05-09T05:43:10.278Z,17.02
2018-05-09T05:45:38.156Z,17.16
2018-05-09T05:48:07.284Z,17.25
2018-05-09T05:50:34.771Z,17.23
2018-05-09T05:53:02.267Z,17.20
2018-05-09T05:55:30.436Z,17.17
2018-05-09T05:57:57.956Z,17.33
2018-05-09T06:08:59.155Z,17.38
2018-05-09T06:11:26.632Z,17.38
2018-05-09T06:13:54.148Z,17.43
2018-05-09T06:16:21.633Z,17.49
2018-05-09T06:18:49.223Z,17.49
2018-05-09T06:21:16.739Z,17.68
2018-05-09T06:23:44.219Z,17.58
2018-05-09T06:26:11.745Z,17.72
2018-05-09T06:28:39.276Z,17.80
2018-05-09T06:31:06.796Z,17.93
2018-05-09T06:33:34.322Z,17.96
2018-05-09T06:36:01.820Z,17.94
2018-05-09T06:38:29.386Z,18.08
2018-05-09T06:40:56.911Z,17.98
2018-05-09T06:43:24.442Z,18.26
2018-05-09T06:45:51.934Z,18.18
2018-05-09T06:48:19.461Z,18.13
2018-05-09T06:50:46.942Z,18.27
2018-05-09T06:53:14.437Z,18.28
2018-05-09T06:55:41.988Z,18.37
2018-05-09T07:20:56.387Z,18.76
2018-05-09T07:23:23.868Z,19.08
2018-05-09T07:25:51.389Z,18.98
2018-05-09T07:28:18.931Z,19.10
2018-05-09T07:30:46.430Z,19.11
2018-05-09T07:33:13.944Z,19.27
2018-05-09T07:35:41.459Z,19.18
2018-05-09T07:38:08.943Z,19.37
2018-05-09T07:40:36.464Z,19.46
2018-05-09T07:43:03.968Z,19.30
2018-05-09T07:45:31.465Z,19.46
2018-05-09T07:47:58.979Z,19.68
2018-05-09T07:50:26.535Z,20.18
2018-05-09T07:52:54.027Z,19.89
2018-05-09T07:55:21.614Z,19.97
2018-05-09T07:57:49.105Z,20.02
2018-05-09T08:00:16.656Z,20.14
2018-05-09T08:02:44.150Z,20.15
2018-05-09T08:05:11.677Z,20.16
2018-05-09T08:07:39.202Z,20.24
2018-05-09T08:10:06.707Z,20.18
2018-05-09T08:12:34.235Z,20.62
2018-05-09T08:15:01.738Z,20.43
2018-05-09T08:17:29.249Z,20.55
2018-05-09T08:19:56.816Z,20.48
2018-05-09T08:22:24.299Z,20.68
2018-05-09T08:24:51.778Z,20.75
2018-05-09T08:27:19.322Z,20.73
2018-05-09T08:29:46.829Z,20.98
2018-05-09T08:32:14.342Z,21.10
2018-05-09T08:34:41.857Z,20.90
2018-05-09T08:37:09.365Z,21.37
2018-05-09T08:39:36.900Z,21.33
2018-05-09T08:42:04.394Z,21.22
2018-05-09T08:44:31.919Z,21.23
2018-05-09T08:46:59.458Z,20.95
2018-05-09T08:49:27.025Z,21.31
2018-05-09T08:51:54.504Z,21.66
2018-05-09T08:54:22.147Z,21.48
2018-05-09T08:56:49.641Z,21.77
2018-05-09T08:59:17.179Z,21.69
2018-05-09T09:01:44.688Z,21.32
2018-05-09T09:04:12.314Z,21.60
2018-05-09T09:06:39.783Z,21.71
2018-05-09T09:09:07.323Z,21.47
2018-05-09T09:11:34.848Z,21.83
2018-05-09T09:14:02.385Z,22.01
2018-05-09T09:16:29.864Z,22.09
2018-05-09T09:18:57.530Z,21.82
2018-05-09T09:21:25.090Z,21.95
2018-05-09T09:23:52.656Z,22.27
2018-05-09T09:26:20.162Z,22.07
2018-05-09T09:28:47.680Z,22.86
2018-05-09T09:31:15.183Z,22.29
2018-05-09T09:33:42.720Z,22.60
2018-05-09T09:36:10.208Z,22.82
2018-05-09T09:38:37.809Z,22.50
2018-05-09T09:41:05.358Z,22.66
2018-05-09T09:43:32.861Z,22.54
2018-05-09T09:46:00.395Z,22.85
2018-05-09T09:48:27.893Z,22.79
2018-05-09T09:50:55.425Z,22.78
2018-05-09T09:53:22.959Z,22.96
2018-05-09T09:55:50.654Z,22.96
2018-05-09T09:58:18.209Z,23.27
2018-05-09T10:00:45.892Z,23.49
2018-05-09T10:03:13.410Z,23.07
2018-05-09T10:05:40.930Z,23.12
2018-05-09T10:08:08.543Z,23.39
2018-05-09T10:10:35.964Z,23.50
2018-05-09T10:13:03.562Z,23.31
2018-05-09T10:15:31.129Z,23.68
2018-05-09T10:17:58.618Z,23.86
2018-05-09T10:20:26.239Z,23.94
2018-05-09T10:22:53.722Z,23.57
2018-05-09T10:25:21.223Z,23.63
2018-05-09T10:27:48.780Z,23.91
2018-05-09T10:30:16.270Z,24.10
2018-05-09T10:32:43.797Z,24.46
2018-05-09T10:35:11.292Z,23.99
2018-05-09T10:37:38.887Z,24.05
2018-05-09T10:40:06.411Z,24.29
2018-05-09T10:42:33.938Z,23.99
2018-05-09T10:45:01.448Z,24.21
2018-05-09T10:47:29.017Z,24.27
2018-05-09T10:49:56.539Z,24.21
2018-05-09T10:52:24.035Z,24.39
2018-05-09T10:54:51.594Z,24.36
2018-05-09T10:57:19.222Z,24.19
2018-05-09T10:59:46.692Z,24.33
2018-05-09T11:02:14.178Z,24.61
2018-05-09T11:04:41.783Z,24.35
2018-05-09T11:07:09.320Z,24.69
2018-05-09T11:09:36.807Z,24.73
2018-05-09T11:12:04.309Z,24.43
2018-05-09T11:14:31.797Z,24.51
2018-05-09T11:16:59.323Z,24.88
2018-05-09T11:19:26.813Z,24.80
2018-05-09T11:21:54.346Z,24.87
2018-05-09T11:24:21.884Z,24.67
2018-05-09T11:26:49.335Z,24.92
2018-05-09T11:29:16.858Z,25.09
2018-05-09T11:31:44.366Z,24.75
2018-05-09T11:34:11.881Z,24.82
2018-05-09T11:36:39.393Z,24.97
2018-05-09T11:39:06.887Z,25.16
2018-05-09T11:41:34.396Z,25.20
2018-05-09T11:44:01.939Z,25.35
2018-05-09T11:46:29.469Z,25.23
2018-05-09T11:48:57.005Z,25.26
2018-05-09T11:51:24.492Z,25.65
2018-05-09T11:53:52.019Z,25.26
2018-05-09T11:56:19.529Z,25.40
2018-05-09T11:58:47.058Z,25.58
2018-05-09T12:01:14.607Z,25.47
2018-05-09T12:03:42.147Z,25.14
2018-05-09T12:06:09.751Z,25.53
2018-05-09T12:08:37.770Z,25.48
2018-05-09T12:11:05.256Z,25.62
2018-05-09T12:13:32.770Z,25.60
2018-05-09T12:16:00.355Z,25.82
2018-05-09T12:18:27.893Z,25.85
2018-05-09T12:20:55.378Z,25.73
2018-05-09T12:23:23.490Z,26.20
2018-05-09T12:25:50.988Z,26.10
2018-05-09T12:28:18.524Z,25.90
2018-05-09T12:30:46.026Z,26.19
2018-05-09T12:33:13.568Z,26.15
2018-05-09T12:35:41.055Z,26.17
2018-05-09T12:38:08.573Z,26.20
2018-05-09T12:40:36.076Z,26.36
2018-05-09T12:43:03.591Z,26.18
2018-05-09T12:45:31.100Z,25.98
2018-05-09T12:47:58.606Z,25.76
2018-05-09T12:50:26.108Z,25.79
2018-05-09T12:52:53.595Z,25.83
2018-05-09T12:55:21.130Z,26.18
2018-05-09T12:57:49.248Z,26.28
2018-05-09T13:00:16.776Z,26.40
2018-05-09T13:02:44.324Z,26.35
2018-05-09T13:05:11.901Z,26.55
2018-05-09T13:07:39.396Z,26.51
2018-05-09T13:10:06.920Z,26.57
2018-05-09T13:12:34.443Z,26.25
2018-05-09T13:15:01.925Z,26.19
2018-05-09T13:17:29.456Z,26.00
2018-05-09T13:19:56.971Z,26.21
2018-05-09T13:22:24.493Z,26.02
2018-05-09T13:24:51.975Z,26.00
2018-05-09T13:27:19.501Z,26.38
2018-05-09T13:29:46.985Z,26.64
2018-05-09T13:32:15.209Z,26.70
2018-05-09T13:34:42.723Z,26.71
2018-05-09T13:37:10.272Z,26.59
2018-05-09T13:39:37.814Z,26.81
2018-05-09T13:42:05.282Z,26.76
2018-05-09T13:44:32.803Z,26.71
2018-05-09T13:47:00.289Z,27.03
2018-05-09T13:49:27.931Z,27.02
2018-05-09T13:51:55.444Z,27.13
2018-05-09T13:54:23.026Z,26.87
2018-05-09T13:56:51.303Z,26.47
2018-05-09T13:59:18.853Z,26.32
2018-05-09T14:01:46.363Z,26.58
2018-05-09T14:04:13.890Z,27.07
2018-05-09T14:06:41.412Z,27.12
2018-05-09T14:09:09.101Z,27.28
2018-05-09T14:11:36.594Z,27.38
2018-05-09T14:14:04.112Z,27.37
2018-05-09T14:16:31.603Z,27.40
2018-05-09T14:18:59.143Z,27.48
2018-05-09T14:21:26.667Z,27.08
2018-05-09T14:23:54.180Z,26.75
2018-05-09T14:26:21.728Z,26.57
2018-05-09T14:28:49.214Z,26.43
2018-05-09T14:31:16.735Z,26.52
2018-05-09T14:33:44.247Z,26.43
2018-05-09T14:36:11.752Z,26.82
2018-05-09T14:38:39.233Z,27.04
2018-05-09T14:41:06.805Z,27.48
2018-05-09T14:43:34.287Z,27.53
2018-05-09T14:46:02.918Z,27.66
2018-05-09T14:48:30.425Z,27.53
2018-05-09T14:50:57.928Z,27.14
2018-05-09T14:53:26.198Z,26.99
2018-05-09T14:55:53.717Z,26.86
2018-05-09T14:58:21.244Z,26.80
2018-05-09T15:00:48.847Z,26.78
2018-05-09T15:03:16.347Z,26.65
2018-05-09T15:05:43.840Z,26.62
2018-05-09T15:08:11.339Z,26.62
2018-05-09T15:10:38.865Z,26.91
2018-05-09T15:13:06.406Z,27.25
2018-05-09T15:15:33.912Z,27.44
2018-05-09T15:18:01.421Z,27.65
2018-05-09T15:20:28.900Z,27.64
2018-05-09T15:22:56.401Z,27.57
2018-05-09T15:25:23.946Z,27.56
2018-05-09T15:27:51.448Z,27.29
2018-05-09T15:30:18.956Z,27.11
2018-05-09T15:32:46.475Z,27.07
2018-05-09T15:35:14.050Z,26.99
2018-05-09T15:37:41.475Z,27.41
2018-05-09T15:40:09.021Z,27.55
2018-05-09T15:42:36.503Z,27.37
2018-05-09T15:45:04.022Z,27.44
2018-05-09T15:47:31.518Z,27.39
2018-05-09T15:49:59.657Z,27.31
2018-05-09T15:52:27.248Z,27.11
2018-05-09T15:54:54.765Z,27.22
2018-05-09T15:57:22.260Z,27.43
2018-05-09T15:59:49.762Z,27.67
2018-05-09T16:02:17.290Z,27.70
2018-05-09T16:04:44.797Z,27.95
2018-05-09T16:07:12.303Z,27.69
2018-05-09T16:09:39.903Z,27.81
2018-05-09T16:12:07.422Z,27.80
2018-05-09T16:14:34.941Z,27.79
2018-05-09T16:17:02.438Z,27.81
2018-05-09T16:19:30.010Z,27.59
2018-05-09T16:21:57.509Z,27.78
2018-05-09T16:24:25.056Z,27.89
2018-05-09T16:26:52.552Z,27.72
2018-05-09T16:29:20.097Z,27.85
2018-05-09T16:31:47.618Z,27.80
2018-05-09T16:34:15.161Z,27.86
2018-05-09T16:36:42.693Z,27.86
2018-05-09T16:39:10.207Z,27.87
2018-05-09T16:41:37.755Z,27.70
2018-05-09T16:44:05.322Z,27.65
2018-05-09T16:46:32.805Z,27.82
2018-05-09T16:49:00.326Z,27.71
2018-05-09T16:51:27.846Z,27.76
2018-05-09T16:53:55.427Z,27.70
2018-05-09T16:56:22.951Z,27.72
2018-05-09T16:58:50.435Z,27.63
2018-05-09T17:01:17.967Z,27.75
2018-05-09T17:03:45.485Z,27.79
2018-05-09T17:06:13.035Z,27.71
2018-05-09T17:08:40.560Z,27.62
2018-05-09T17:11:08.067Z,27.71
2018-05-09T17:13:35.593Z,27.68
2018-05-09T17:16:03.095Z,27.54
2018-05-09T17:18:30.608Z,27.58
2018-05-09T17:20:58.177Z,27.56
2018-05-09T17:23:25.820Z,27.55
2018-05-09T17:25:53.368Z,27.50
2018-05-09T17:28:20.949Z,27.47
2018-05-09T17:30:48.494Z,27.42
2018-05-09T17:33:16.039Z,27.46
2018-05-09T17:35:43.578Z,27.52
2018-05-09T17:38:11.131Z,27.37
2018-05-09T17:40:38.642Z,27.37
2018-05-09T17:43:06.168Z,27.32
2018-05-09T17:45:33.775Z,27.33
2018-05-09T17:48:01.305Z,27.19
2018-05-09T17:50:28.928Z,27.25
2018-05-09T17:52:56.486Z,27.29
2018-05-09T17:55:23.997Z,27.22
2018-05-09T17:57:51.522Z,27.09
2018-05-09T18:00:19.025Z,26.91
2018-05-09T18:02:46.526Z,26.82
2018-05-09T18:05:14.076Z,26.73
2018-05-09T18:07:41.587Z,26.73
2018-05-09T18:10:09.846Z,26.68
2018-05-09T18:12:37.360Z,26.62
2018-05-09T18:15:05.107Z,26.47
2018-05-09T18:17:32.653Z,26.27
2018-05-09T18:20:00.171Z,26.32
2018-05-09T18:22:27.685Z,26.20
2018-05-09T18:24:55.268Z,26.24
2018-05-09T18:27:22.773Z,26.16
2018-05-09T18:29:50.273Z,26.11
2018-05-09T18:32:17.829Z,26.01
2018-05-09T18:34:45.372Z,25.97
2018-05-09T18:37:12.880Z,25.92
2018-05-09T18:39:40.485Z,26.06
2018-05-09T18:42:08.000Z,25.96
2018-05-09T18:44:35.513Z,25.72
2018-05-09T18:47:03.018Z,25.85
2018-05-09T18:49:30.559Z,25.67
2018-05-09T18:51:58.033Z,25.52
2018-05-09T18:54:25.638Z,25.46
2018-05-09T18:56:53.114Z,25.39
2018-05-09T18:59:20.667Z,25.37
2018-05-09T19:01:48.181Z,25.31
2018-05-09T19:04:15.749Z,25.24
2018-05-09T19:06:43.297Z,25.36
2018-05-09T19:09:10.815Z,25.43
2018-05-09T19:11:38.562Z,25.27
2018-05-09T19:14:06.107Z,25.29
2018-05-09T19:16:33.660Z,25.11
2018-05-09T19:19:01.196Z,25.19
2018-05-09T19:21:29.486Z,25.08
2018-05-09T19:23:57.609Z,24.99
2018-05-09T19:26:25.133Z,25.05
2018-05-09T19:28:52.613Z,24.92
2018-05-09T19:31:20.157Z,24.91
2018-05-09T19:33:47.671Z,24.91
2018-05-09T19:36:15.173Z,24.88
2018-05-09T19:38:42.754Z,24.72
2018-05-09T19:41:10.422Z,24.81
2018-05-09T19:43:38.062Z,24.83
2018-05-09T19:46:05.572Z,24.53
2018-05-09T19:48:33.143Z,24.55
2018-05-09T19:51:00.635Z,24.50
2018-05-09T19:53:28.337Z,24.34
2018-05-09T19:55:55.860Z,24.41
2018-05-09T19:58:23.351Z,24.29
2018-05-09T20:00:50.991Z,24.43
2018-05-09T20:03:18.493Z,24.44
2018-05-09T20:05:46.604Z,24.63
2018-05-09T20:08:14.078Z,24.65
2018-05-09T20:10:41.576Z,24.45
2018-05-09T20:13:09.080Z,24.48
2018-05-09T20:15:51.284Z,24.39
2018-05-09T20:21:35.483Z,24.35
2018-05-09T20:24:02.960Z,24.34
2018-05-09T20:26:30.500Z,24.12
2018-05-09T20:29:02.018Z,23.98
2018-05-09T20:31:46.960Z,23.97
2018-05-09T20:34:14.452Z,23.92
2018-05-09T20:36:42.051Z,23.85
2018-05-09T20:39:09.545Z,24.00
2018-05-09T20:41:37.090Z,23.85
2018-05-09T20:44:04.653Z,23.77
2018-05-09T20:46:32.257Z,23.69
2018-05-09T20:48:59.804Z,23.46
2018-05-09T20:51:39.233Z,23.56
2018-05-09T20:54:07.036Z,23.50
2018-05-09T20:56:34.578Z,23.50
2018-05-09T20:59:02.197Z,23.47
2018-05-09T21:01:41.466Z,23.33
2018-05-09T21:04:09.581Z,23.13
2018-05-09T21:06:37.058Z,23.18
2018-05-09T21:09:05.432Z,23.18
2018-05-09T21:11:32.978Z,22.85
2018-05-09T21:14:00.501Z,23.11
2018-05-09T21:16:28.003Z,22.88
2018-05-09T21:18:55.553Z,22.85
2018-05-09T21:21:23.100Z,23.01
2018-05-09T21:23:50.644Z,23.02
2018-05-09T21:26:18.159Z,22.89
2018-05-09T21:28:45.791Z,22.82
2018-05-09T21:31:13.279Z,22.60
2018-05-09T21:33:40.775Z,22.74
2018-05-09T21:36:08.259Z,22.46
2018-05-09T21:38:35.774Z,22.79
2018-05-09T21:41:03.238Z,22.55
2018-05-09T21:43:30.759Z,22.60
2018-05-09T21:45:58.257Z,22.46
2018-05-09T21:48:25.741Z,22.56
2018-05-09T21:50:53.301Z,22.47
2018-05-09T21:53:20.783Z,22.55
2018-05-09T21:55:48.301Z,22.53
2018-05-09T21:58:15.778Z,22.52
2018-05-09T22:00:43.405Z,22.44
2018-05-09T22:03:10.886Z,22.47
2018-05-09T22:05:38.393Z,22.57
2018-05-09T22:08:05.923Z,22.34
2018-05-09T22:20:29.786Z,22.37
2018-05-09T22:22:57.304Z,22.33
2018-05-09T22:25:26.522Z,22.22
2018-05-09T22:27:54.227Z,22.23
2018-05-09T22:30:22.656Z,22.38
2018-05-09T22:32:55.435Z,22.29
2018-05-09T22:35:25.303Z,22.38
2018-05-09T22:37:55.171Z,22.31
2018-05-09T22:40:23.441Z,22.29
2018-05-09T22:42:51.059Z,22.06
2018-05-09T22:45:18.591Z,22.04
2018-05-09T22:47:46.157Z,21.92
2018-05-09T22:50:13.627Z,22.06
2018-05-09T22:52:41.112Z,22.24
2018-05-09T22:55:08.607Z,22.01
2018-05-09T22:57:36.138Z,22.13
2018-05-09T23:00:03.640Z,21.93
2018-05-09T23:02:31.110Z,21.70
2018-05-09T23:04:58.653Z,21.78
2018-05-09T23:07:26.108Z,21.50
2018-05-09T23:09:53.614Z,21.43
2018-05-09T23:12:21.106Z,21.36
2018-05-09T23:14:48.620Z,21.41
2018-05-09T23:17:16.091Z,21.20
2018-05-09T23:19:43.596Z,21.12
2018-05-09T23:22:11.117Z,21.22
2018-05-09T23:24:38.614Z,21.22
2018-05-09T23:27:06.113Z,21.23
2018-05-09T23:29:33.620Z,21.20
2018-05-09T23:32:01.121Z,21.25
2018-05-09T23:34:28.608Z,21.13
2018-05-09T23:36:56.112Z,21.23
2018-05-09T23:39:23.599Z,21.01
2018-05-09T23:41:51.114Z,20.97
2018-05-09T23:44:18.589Z,21.02
2018-05-09T23:46:46.097Z,20.90
2018-05-09T23:49:13.582Z,20.91
2018-05-09T23:51:41.094Z,20.92
2018-05-09T23:54:08.631Z,20.97
2018-05-09T23:56:36.127Z,20.86
2018-05-09T23:59:03.647Z,21.00
